Time;durP1;ratioP1;P1;durP2;ratioP2;P2;SDS_P1;SDS_P2;PMS_P1;PMS_P2;Temp;Humidity;BMP_temperature;BMP_pressure;BME280_temperature;BME280_humidity;BME280_pressure;Samples;Min_cycle;Max_cycle;Signal;HPM_P1;HPM_P2
2022/09/24 00:01:12;;;;;;;39.53;18.03;;;;;;;6.28;100.00;100002.59;4197812;28;20418;-72
2022/09/24 00:03:44;;;;;;;34.23;16.37;;;;;;;6.19;100.00;100000.72;4192013;28;20247;-71
2022/09/24 00:06:14;;;;;;;35.67;15.70;;;;;;;6.16;100.00;100001.00;4195174;28;20806;-71
2022/09/24 00:08:40;;;;;;;34.30;16.27;;;;;;;6.13;100.00;99999.44;4180269;28;21709;-68
2022/09/24 00:11:10;;;;;;;40.33;18.73;;;;;;;6.16;100.00;100000.13;4189614;28;20304;-69
2022/09/24 00:13:37;;;;;;;37.50;17.57;;;;;;;6.19;100.00;99999.91;4192176;28;20230;-71
2022/09/24 00:16:08;;;;;;;34.60;17.90;;;;;;;6.13;100.00;100004.72;4190995;28;20238;-69
2022/09/24 00:18:35;;;;;;;34.43;17.63;;;;;;;6.09;100.00;99999.81;4190276;28;20440;-69
2022/09/24 00:21:14;;;;;;;39.57;17.93;;;;;;;6.17;100.00;100000.00;4193612;28;20345;-71
2022/09/24 00:23:41;;;;;;;31.90;15.83;;;;;;;6.11;100.00;100000.50;4193553;28;21130;-69
2022/09/24 00:28:57;;;;;;;39.40;17.73;;;;;;;5.97;100.00;99996.41;4205351;28;20233;-72
2022/09/24 00:31:24;;;;;;;36.80;17.33;;;;;;;5.93;100.00;99993.13;4195868;28;20239;-68
2022/09/24 00:33:51;;;;;;;33.43;16.70;;;;;;;5.95;100.00;99994.81;4198348;28;20245;-68
2022/09/24 00:36:19;;;;;;;33.90;17.63;;;;;;;6.01;100.00;99989.03;4192983;28;20248;-71
2022/09/24 00:38:51;;;;;;;39.83;18.07;;;;;;;5.92;100.00;99988.81;4197027;28;22133;-68
2022/09/24 00:41:19;;;;;;;32.37;16.73;;;;;;;5.88;100.00;99995.31;4202632;28;20237;-69
2022/09/24 00:43:47;;;;;;;35.37;18.33;;;;;;;5.80;100.00;99996.88;4180737;28;20357;-68
2022/09/24 00:46:31;;;;;;;31.37;16.73;;;;;;;5.81;100.00;99991.50;4193205;28;20315;-69
2022/09/24 00:49:13;;;;;;;34.17;17.50;;;;;;;5.75;100.00;99994.63;4177193;28;20243;-69
2022/09/24 00:51:46;;;;;;;37.57;18.43;;;;;;;5.90;100.00;99982.81;4194562;28;20909;-71
2022/09/24 00:54:19;;;;;;;33.30;18.13;;;;;;;5.86;100.00;99981.38;4178392;28;20313;-70
2022/09/24 00:56:46;;;;;;;31.47;16.37;;;;;;;5.85;100.00;99986.78;4191016;28;20237;-68
2022/09/24 00:59:16;;;;;;;33.00;16.40;;;;;;;5.84;100.00;99988.59;4205176;28;20309;-70
2022/09/24 01:01:43;;;;;;;37.87;17.47;;;;;;;5.84;100.00;99993.03;4198259;28;21712;-68
2022/09/24 01:04:10;;;;;;;33.13;17.53;;;;;;;5.77;100.00;99974.22;4189254;28;20623;-69
2022/09/24 01:06:37;;;;;;;36.53;18.30;;;;;;;5.73;100.00;99978.06;4184609;28;21127;-71
2022/09/24 01:09:04;;;;;;;41.30;18.30;;;;;;;5.77;100.00;99982.13;4196815;28;20244;-69
2022/09/24 01:11:51;;;;;;;36.80;18.20;;;;;;;5.77;100.00;99976.03;4178452;28;20415;-70
2022/09/24 01:14:38;;;;;;;37.87;17.67;;;;;;;5.78;100.00;99978.53;4202636;28;20233;-70
2022/09/24 01:17:31;;;;;;;34.63;17.93;;;;;;;5.71;100.00;99977.34;4206543;28;20270;-70
2022/09/24 01:20:23;;;;;;;35.03;17.30;;;;;;;5.66;100.00;99977.72;4204022;28;20245;-68
2022/09/24 01:23:41;;;;;;;36.40;17.93;;;;;;;5.61;100.00;99977.25;4193187;28;20256;-68
2022/09/24 01:26:22;;;;;;;41.00;18.80;;;;;;;5.68;100.00;99967.03;4161344;28;20243;-70
2022/09/24 01:29:04;;;;;;;38.67;19.13;;;;;;;5.67;100.00;99970.66;4188867;28;20290;-71
2022/09/24 01:31:45;;;;;;;41.57;18.83;;;;;;;5.67;100.00;99970.66;4191007;28;20233;-67
2022/09/24 01:34:19;;;;;;;35.20;18.37;;;;;;;5.66;100.00;99968.97;4179450;28;20251;-68
2022/09/24 01:36:46;;;;;;;34.90;18.27;;;;;;;5.65;100.00;99964.66;4187261;28;20349;-68
2022/09/24 01:39:13;;;;;;;41.17;18.53;;;;;;;5.61;100.00;99965.88;4190615;28;20252;-69
2022/09/24 01:41:41;;;;;;;36.43;18.80;;;;;;;5.61;100.00;99966.69;4188646;28;20253;-71
2022/09/24 01:44:08;;;;;;;37.93;18.93;;;;;;;5.51;100.00;99965.78;4186058;28;20229;-69
2022/09/24 01:46:39;;;;;;;41.97;19.33;;;;;;;5.45;100.00;99961.81;4186492;28;20291;-68
2022/09/24 01:49:06;;;;;;;43.30;20.20;;;;;;;5.49;100.00;99970.34;4191897;28;21218;-69
2022/09/24 01:51:49;;;;;;;38.57;18.73;;;;;;;5.48;100.00;99961.59;4188411;28;20238;-70
2022/09/24 01:54:20;;;;;;;41.40;19.57;;;;;;;5.53;100.00;99958.59;4189906;28;20512;-69
2022/09/24 01:56:50;;;;;;;36.83;19.10;;;;;;;5.53;100.00;99963.03;4194297;28;20304;-68
2022/09/24 01:59:56;;;;;;;46.83;20.67;;;;;;;5.44;100.00;99954.88;4202073;28;20380;-70
2022/09/24 02:02:44;;;;;;;42.93;21.07;;;;;;;5.56;100.00;99958.31;4158565;28;20360;-67
2022/09/24 02:05:27;;;;;;;43.97;21.60;;;;;;;5.56;100.00;99955.69;4193451;28;20369;-68
2022/09/24 02:08:02;;;;;;;45.43;19.77;;;;;;;5.46;100.00;99957.41;4191656;28;21031;-69
2022/09/24 02:10:31;;;;;;;40.90;21.30;;;;;;;5.37;100.00;99948.44;4198323;28;20423;-69
2022/09/24 02:13:02;;;;;;;39.37;20.67;;;;;;;5.38;100.00;99955.38;4183470;28;20301;-68
2022/09/24 02:15:33;;;;;;;45.93;21.83;;;;;;;5.35;100.00;99955.63;4184558;28;21530;-69
2022/09/24 02:18:04;;;;;;;46.37;23.10;;;;;;;5.36;100.00;99957.31;4200334;28;20314;-71
2022/09/24 02:20:33;;;;;;;46.50;22.40;;;;;;;5.32;100.00;99958.50;4188041;28;20405;-69
2022/09/24 02:23:00;;;;;;;50.57;23.07;;;;;;;5.33;100.00;99960.19;4170712;28;20246;-69
2022/09/24 02:25:33;;;;;;;51.53;23.10;;;;;;;5.32;100.00;99953.25;4147815;28;21914;-68
2022/09/24 02:28:01;;;;;;;53.17;23.23;;;;;;;5.28;100.00;99957.06;4179338;28;21032;-70
2022/09/24 02:30:33;;;;;;;43.17;21.70;;;;;;;5.32;100.00;99955.88;4180002;28;23157;-69
2022/09/24 02:32:59;;;;;;;45.50;22.93;;;;;;;5.29;100.00;99956.09;4172476;28;20225;-70
2022/09/24 02:35:26;;;;;;;40.17;22.07;;;;;;;5.33;100.00;99954.91;4171757;28;20302;-69
2022/09/24 02:37:52;;;;;;;45.23;22.47;;;;;;;5.36;100.00;99956.44;4168567;28;20317;-68
2022/09/24 02:40:19;;;;;;;43.03;22.57;;;;;;;5.29;100.00;99956.97;4178396;28;20460;-69
2022/09/24 02:42:45;;;;;;;43.77;22.27;;;;;;;5.30;100.00;99960.44;4156960;28;20234;-68
2022/09/24 02:45:13;;;;;;;49.93;22.97;;;;;;;5.19;100.00;99960.44;4189369;28;25154;-69
2022/09/24 02:47:39;;;;;;;42.57;22.53;;;;;;;5.18;100.00;99958.78;4169549;28;22557;-70
2022/09/24 02:50:06;;;;;;;43.53;22.77;;;;;;;5.11;100.00;99955.78;4169673;28;21507;-69
2022/09/24 02:52:33;;;;;;;45.73;21.57;;;;;;;5.11;100.00;99945.25;4172073;28;21313;-68
2022/09/24 02:54:59;;;;;;;47.77;23.43;;;;;;;5.07;100.00;99947.25;4170037;28;20331;-68
2022/09/24 02:57:26;;;;;;;43.53;22.13;;;;;;;5.02;100.00;99953.88;4175602;28;20403;-68
2022/09/24 02:59:52;;;;;;;42.00;22.03;;;;;;;4.94;100.00;99940.44;4180813;28;20235;-68
2022/09/24 03:02:18;;;;;;;47.93;24.17;;;;;;;4.90;100.00;99950.41;4181200;28;21824;-69
2022/09/24 03:04:46;;;;;;;40.97;20.93;;;;;;;4.88;100.00;99951.50;4171283;28;20245;-67
2022/09/24 03:07:13;;;;;;;43.53;21.67;;;;;;;4.94;100.00;99941.31;4166802;28;20245;-69
2022/09/24 03:09:40;;;;;;;49.90;23.23;;;;;;;4.95;100.00;99942.97;4170912;28;20233;-67
2022/09/24 03:12:07;;;;;;;47.33;24.50;;;;;;;4.97;100.00;99946.34;4169697;28;21100;-67
2022/09/24 03:14:33;;;;;;;48.00;22.83;;;;;;;4.93;100.00;99942.25;4169953;28;20231;-69
2022/09/24 03:17:00;;;;;;;48.13;23.80;;;;;;;4.92;100.00;99934.47;4172314;28;21516;-70
2022/09/24 03:19:26;;;;;;;46.43;24.00;;;;;;;4.86;100.00;99938.41;4176193;28;22474;-69
2022/09/24 03:21:53;;;;;;;47.10;24.17;;;;;;;4.88;100.00;99940.94;4178908;28;20229;-70
2022/09/24 03:24:20;;;;;;;47.57;23.67;;;;;;;4.85;100.00;99947.31;4190351;28;20493;-70
2022/09/24 03:26:46;;;;;;;44.43;23.60;;;;;;;4.81;100.00;99943.22;4191544;28;20977;-69
2022/09/24 03:29:12;;;;;;;47.23;23.37;;;;;;;4.79;100.00;99938.06;4191366;28;20240;-68
2022/09/24 03:31:39;;;;;;;43.33;23.00;;;;;;;4.75;100.00;99926.09;4188557;28;21896;-70
2022/09/24 03:34:05;;;;;;;47.20;24.87;;;;;;;4.67;100.00;99935.56;4185665;28;20411;-69
2022/09/24 03:36:32;;;;;;;41.80;23.20;;;;;;;4.72;100.00;99925.50;4190853;28;20237;-68
2022/09/24 03:38:58;;;;;;;50.57;24.00;;;;;;;4.65;100.00;99920.69;4190956;28;20387;-67
2022/09/24 03:41:26;;;;;;;46.83;23.50;;;;;;;4.64;100.00;99929.56;4182726;28;21796;-68
2022/09/24 03:43:53;;;;;;;42.03;22.77;;;;;;;4.65;100.00;99933.88;4176683;28;20958;-70
2022/09/24 03:46:20;;;;;;;42.73;22.20;;;;;;;4.70;100.00;99932.69;4185878;28;20432;-68
2022/09/24 03:48:48;;;;;;;48.03;24.13;;;;;;;4.64;100.00;99934.84;4182345;28;20244;-66
2022/09/24 03:51:17;;;;;;;47.27;23.00;;;;;;;4.67;100.00;99939.03;4196364;28;20241;-71
2022/09/24 03:53:45;;;;;;;44.87;23.10;;;;;;;4.66;100.00;99937.38;4190092;28;20296;-68
2022/09/24 03:56:11;;;;;;;46.20;23.73;;;;;;;4.64;100.00;99939.28;4184364;28;25295;-68
2022/09/24 03:58:39;;;;;;;43.57;23.23;;;;;;;4.67;100.00;99944.28;4188365;28;20269;-68
2022/09/24 04:01:06;;;;;;;45.90;22.93;;;;;;;4.73;100.00;99943.84;4181910;28;21212;-69
2022/09/24 04:03:33;;;;;;;45.17;23.87;;;;;;;4.68;100.00;99945.97;4188263;28;20236;-69
2022/09/24 04:06:00;;;;;;;43.50;22.97;;;;;;;4.69;100.00;99941.56;4187240;28;21778;-69
2022/09/24 04:08:26;;;;;;;45.03;25.47;;;;;;;4.69;100.00;99936.28;4187398;28;20283;-68
2022/09/24 04:10:54;;;;;;;43.87;23.27;;;;;;;4.68;100.00;99934.59;4192140;28;20251;-69
2022/09/24 04:13:21;;;;;;;42.60;23.30;;;;;;;4.69;100.00;99941.56;4188002;28;20296;-70
2022/09/24 04:15:49;;;;;;;47.67;23.30;;;;;;;4.68;100.00;99939.84;4189844;28;20240;-69
2022/09/24 04:18:16;;;;;;;49.87;25.03;;;;;;;4.63;100.00;99951.59;4193687;28;20242;-68
2022/09/24 04:20:43;;;;;;;49.23;23.37;;;;;;;4.71;100.00;99944.91;4176810;28;20325;-67
2022/09/24 04:23:10;;;;;;;43.87;23.10;;;;;;;4.75;100.00;99947.19;4190273;28;20356;-68
2022/09/24 04:25:36;;;;;;;47.60;23.30;;;;;;;4.92;100.00;99942.41;4173082;28;20312;-69
2022/09/24 04:28:05;;;;;;;47.70;21.70;;;;;;;4.88;100.00;99936.50;4186099;28;20282;-69
2022/09/24 04:30:32;;;;;;;45.07;22.97;;;;;;;4.89;100.00;99946.09;4179959;28;20243;-70
2022/09/24 04:32:59;;;;;;;43.40;22.03;;;;;;;5.03;100.00;99940.59;4190605;28;20349;-68
2022/09/24 04:35:28;;;;;;;44.97;22.30;;;;;;;5.06;100.00;99940.34;4204084;28;25363;-67
2022/09/24 04:37:56;;;;;;;40.57;20.13;;;;;;;5.07;100.00;99946.44;4186319;28;21241;-69
2022/09/24 04:40:22;;;;;;;46.73;23.50;;;;;;;5.07;100.00;99936.72;4227908;28;20309;-69
2022/09/24 04:42:49;;;;;;;44.37;21.77;;;;;;;5.07;100.00;99947.25;4196699;28;20409;-68
2022/09/24 04:45:19;;;;;;;42.47;21.33;;;;;;;5.24;100.00;99950.34;4210529;28;20295;-68
2022/09/24 04:47:51;;;;;;;40.10;21.20;;;;;;;5.19;100.00;99950.72;4191450;28;23291;-68
2022/09/24 04:50:18;;;;;;;37.07;20.23;;;;;;;5.20;100.00;99948.94;4220503;28;20407;-67
2022/09/24 04:52:45;;;;;;;50.00;22.27;;;;;;;5.18;100.00;99943.78;4201894;28;20252;-69
2022/09/24 04:55:11;;;;;;;40.07;21.33;;;;;;;5.23;100.00;99956.63;4196947;28;20301;-69
2022/09/24 04:57:40;;;;;;;42.07;21.23;;;;;;;5.26;100.00;99949.28;4199549;28;20239;-69
2022/09/24 05:00:08;;;;;;;43.60;21.00;;;;;;;5.44;100.00;99954.06;4194513;28;20232;-70
2022/09/24 05:02:35;;;;;;;43.87;22.10;;;;;;;5.46;100.00;99955.59;4185901;28;20229;-68
2022/09/24 05:05:03;;;;;;;38.20;20.47;;;;;;;5.48;100.00;99953.69;4187930;28;23663;-69
2022/09/24 05:07:29;;;;;;;47.37;23.07;;;;;;;5.47;100.00;99951.97;4192185;28;20239;-70
2022/09/24 05:09:56;;;;;;;43.57;21.53;;;;;;;5.57;100.00;99951.25;4202655;28;20330;-67
2022/09/24 05:12:22;;;;;;;40.03;20.60;;;;;;;5.65;100.00;99940.91;4194093;28;20254;-70
2022/09/24 05:14:49;;;;;;;46.17;21.50;;;;;;;5.75;100.00;99938.34;4198360;28;20228;-69
2022/09/24 05:17:15;;;;;;;43.03;21.97;;;;;;;5.75;100.00;99936.53;4199014;28;20245;-68
2022/09/24 05:19:42;;;;;;;41.73;20.33;;;;;;;5.85;100.00;99948.03;4194565;28;22156;-70
2022/09/24 05:22:08;;;;;;;44.07;20.40;;;;;;;5.90;100.00;99943.22;4191704;28;21014;-70
2022/09/24 05:24:35;;;;;;;45.73;22.80;;;;;;;5.86;100.00;99939.13;4180538;28;20291;-68
2022/09/24 05:27:08;;;;;;;39.13;20.53;;;;;;;5.98;100.00;99941.75;4188253;28;25186;-69
2022/09/24 05:29:40;;;;;;;38.33;18.83;;;;;;;6.13;100.00;99943.97;4194287;28;20237;-70
2022/09/24 05:32:09;;;;;;;41.30;18.73;;;;;;;6.29;100.00;99940.84;4177048;28;20273;-69
2022/09/24 05:34:35;;;;;;;32.80;17.23;;;;;;;6.40;100.00;99942.59;4185413;28;20248;-68
2022/09/24 05:37:03;;;;;;;33.77;17.30;;;;;;;6.53;100.00;99945.88;4188985;28;20238;-68
2022/09/24 05:39:30;;;;;;;32.37;16.13;;;;;;;6.59;100.00;99941.84;4198507;28;20313;-69
2022/09/24 05:42:03;;;;;;;29.80;15.67;;;;;;;6.66;100.00;99937.72;4205845;28;20240;-70
2022/09/24 05:44:30;;;;;;;30.73;15.63;;;;;;;6.72;100.00;99942.50;4185604;28;22646;-71
2022/09/24 05:46:57;;;;;;;34.30;15.47;;;;;;;6.86;100.00;99948.38;4181524;28;20243;-70
2022/09/24 05:49:23;;;;;;;33.30;16.47;;;;;;;6.92;100.00;99951.31;4185475;28;20380;-75
2022/09/24 05:51:50;;;;;;;35.10;16.10;;;;;;;7.01;100.00;99947.06;4187430;28;20242;-68
2022/09/24 05:54:17;;;;;;;29.33;14.70;;;;;;;7.16;99.70;99943.06;4190552;28;21080;-71
2022/09/24 05:56:44;;;;;;;32.10;14.87;;;;;;;7.34;99.17;99942.41;4190181;28;20230;-74
2022/09/24 05:59:11;;;;;;;31.83;16.13;;;;;;;7.44;98.25;99947.72;4218315;28;20242;-70
2022/09/24 06:01:38;;;;;;;27.53;15.27;;;;;;;7.63;97.99;99954.84;4297367;28;21546;-71
2022/09/24 06:04:04;;;;;;;28.03;14.47;;;;;;;7.79;97.10;99949.84;4364183;28;20698;-68
2022/09/24 06:06:34;;;;;;;26.03;13.73;;;;;;;7.92;96.15;99952.22;4194638;28;20230;-69
2022/09/24 06:09:01;;;;;;;28.20;14.93;;;;;;;8.06;94.83;99964.22;4190906;28;20357;-70
2022/09/24 06:11:33;;;;;;;23.57;13.20;;;;;;;8.25;93.54;99961.53;4189675;28;20400;-72
2022/09/24 06:14:07;;;;;;;30.03;14.87;;;;;;;8.38;92.95;99964.72;4177886;28;25350;-71
2022/09/24 06:16:34;;;;;;;24.87;13.83;;;;;;;8.48;92.13;99964.72;4191409;28;21606;-67
2022/09/24 06:19:00;;;;;;;26.00;13.93;;;;;;;8.61;92.33;99964.41;4184548;28;20704;-68
2022/09/24 06:21:28;;;;;;;27.90;13.37;;;;;;;8.73;92.15;99967.72;4189583;28;20367;-69
2022/09/24 06:23:55;;;;;;;27.50;13.70;;;;;;;8.90;91.56;99974.09;4194060;28;21763;-77
2022/09/24 06:26:21;;;;;;;26.77;13.60;;;;;;;8.86;91.56;99969.06;4193298;28;20823;-69
2022/09/24 06:28:48;;;;;;;33.57;14.33;;;;;;;8.91;92.17;99965.16;4205207;28;20353;-69
2022/09/24 06:31:14;;;;;;;26.13;13.70;;;;;;;9.14;91.25;99966.44;4197280;28;20236;-70
2022/09/24 06:33:41;;;;;;;31.07;13.83;;;;;;;9.21;88.40;99972.84;4190181;28;22537;-73
2022/09/24 06:36:08;;;;;;;24.73;12.87;;;;;;;9.39;86.30;99970.22;4219569;28;20933;-75
2022/09/24 06:38:35;;;;;;;20.13;12.30;;;;;;;9.37;85.59;99966.88;4210626;28;21123;-71
2022/09/24 06:41:03;;;;;;;22.87;12.60;;;;;;;9.66;84.28;99968.50;4198689;28;20225;-72
2022/09/24 06:43:32;;;;;;;22.50;12.33;;;;;;;9.84;81.96;99972.03;4203408;28;20444;-73
2022/09/24 06:45:59;;;;;;;22.57;11.47;;;;;;;9.89;81.14;99979.53;4193532;28;20748;-73
2022/09/24 06:48:26;;;;;;;23.20;13.00;;;;;;;9.97;80.96;99979.59;4194374;28;20849;-71
2022/09/24 06:50:53;;;;;;;18.37;11.47;;;;;;;10.02;81.37;99972.03;4189121;28;20465;-72
2022/09/24 06:53:21;;;;;;;25.63;13.00;;;;;;;10.31;80.87;99978.94;4188211;28;20244;-71
2022/09/24 06:55:47;;;;;;;23.93;12.40;;;;;;;10.50;80.58;99980.56;4180228;28;20566;-73
2022/09/24 06:58:18;;;;;;;22.20;13.10;;;;;;;10.72;81.44;99984.53;4195767;28;20626;-70
2022/09/24 07:01:11;;;;;;;29.20;11.73;;;;;;;10.78;79.03;99981.25;4190670;28;21607;-70
2022/09/24 07:03:38;;;;;;;22.50;11.90;;;;;;;10.84;77.81;99977.97;4201228;28;20324;-70
2022/09/24 07:06:05;;;;;;;19.27;11.37;;;;;;;10.99;78.43;99984.34;4204565;28;21151;-72
2022/09/24 07:08:32;;;;;;;22.33;11.57;;;;;;;11.03;78.78;99992.00;4181035;28;20239;-70
2022/09/24 07:10:59;;;;;;;19.47;11.10;;;;;;;11.16;79.12;99993.25;4190632;28;20233;-73
2022/09/24 07:13:26;;;;;;;24.47;10.97;;;;;;;11.35;77.31;99992.16;4200925;28;22328;-72
2022/09/24 07:15:52;;;;;;;18.83;10.03;;;;;;;11.55;75.60;99997.22;4204067;28;20463;-69
2022/09/24 07:18:19;;;;;;;21.63;10.60;;;;;;;11.87;75.35;99998.28;4195002;28;20252;-72
2022/09/24 07:20:53;;;;;;;17.30;10.00;;;;;;;12.34;73.06;99998.53;4209671;28;21281;-74
2022/09/24 07:23:21;;;;;;;16.20;9.13;;;;;;;12.77;70.43;100009.00;4341971;28;20790;-76
2022/09/24 07:25:48;;;;;;;17.43;8.60;;;;;;;13.24;67.67;100021.56;4443311;28;20236;-66
2022/09/24 07:28:18;;;;;;;20.53;9.67;;;;;;;13.80;64.26;100016.97;4427276;28;21053;-74
2022/09/24 07:30:45;;;;;;;18.13;9.70;;;;;;;14.72;59.72;100026.84;4352072;28;20849;-72
2022/09/24 07:33:12;;;;;;;17.27;9.00;;;;;;;15.52;57.57;100033.34;4447383;28;20286;-75
2022/09/24 07:35:39;;;;;;;19.87;10.03;;;;;;;16.73;52.07;100034.38;4324798;28;20239;-75
2022/09/24 07:38:10;;;;;;;15.63;9.47;;;;;;;17.94;47.69;100055.59;4265102;28;20249;-73
2022/09/24 07:40:37;;;;;;;17.67;9.13;;;;;;;19.29;43.11;100063.53;4180720;28;20619;-69
2022/09/24 07:43:05;;;;;;;14.47;8.60;;;;;;;20.50;38.87;100060.06;4209699;28;20343;-71
2022/09/24 07:45:32;;;;;;;12.37;7.00;;;;;;;22.92;33.25;100076.78;4251253;28;20308;-70
2022/09/24 07:48:00;;;;;;;12.20;7.70;;;;;;;25.27;28.80;100088.72;4188034;28;21756;-70
2022/09/24 07:50:29;;;;;;;13.70;7.40;;;;;;;26.14;27.08;100089.00;4199824;28;20233;-70
2022/09/24 07:52:55;;;;;;;14.00;6.77;;;;;;;26.61;25.15;100093.84;4199384;28;20248;-71
2022/09/24 07:55:23;;;;;;;13.77;6.87;;;;;;;25.20;25.87;100080.72;4200163;28;20489;-71
2022/09/24 07:57:51;;;;;;;12.27;6.60;;;;;;;26.37;24.86;100088.69;4262680;28;20247;-70
2022/09/24 08:00:19;;;;;;;10.37;5.67;;;;;;;25.94;25.67;100082.22;4213167;28;20785;-72
2022/09/24 08:02:46;;;;;;;9.00;5.77;;;;;;;25.78;26.09;100072.19;4223937;28;21256;-72
2022/09/24 08:05:15;;;;;;;10.07;5.83;;;;;;;25.55;25.92;100071.38;4196904;28;20237;-73
2022/09/24 08:07:52;;;;;;;9.87;5.80;;;;;;;25.42;26.08;100074.47;4227697;28;21016;-69
2022/09/24 08:10:18;;;;;;;12.20;5.90;;;;;;;25.30;26.10;100069.13;4206484;28;20239;-70
2022/09/24 08:12:45;;;;;;;9.57;5.20;;;;;;;25.05;26.13;100073.13;4186322;28;20923;-71
2022/09/24 08:15:12;;;;;;;9.50;5.17;;;;;;;22.55;29.35;100055.28;4199867;28;22981;-67
2022/09/24 08:17:39;;;;;;;12.57;6.40;;;;;;;22.76;29.75;100057.44;4197797;28;20233;-70
2022/09/24 08:20:06;;;;;;;8.97;4.90;;;;;;;23.74;28.22;100065.91;4201698;28;21264;-69
2022/09/24 08:22:32;;;;;;;15.53;5.73;;;;;;;23.77;27.64;100059.16;4181511;28;20252;-69
2022/09/24 08:25:01;;;;;;;8.43;4.67;;;;;;;24.35;27.93;100071.69;4200008;28;20688;-68
2022/09/24 08:27:31;;;;;;;10.03;5.57;;;;;;;24.10;28.10;100066.59;4203775;28;21609;-69
2022/09/24 08:29:59;;;;;;;10.43;4.90;;;;;;;23.71;28.27;100060.91;4210249;28;20241;-70
2022/09/24 08:32:28;;;;;;;8.50;4.93;;;;;;;22.51;29.51;100054.09;4203418;28;20234;-68
2022/09/24 08:34:54;;;;;;;5.57;3.83;;;;;;;21.26;31.34;100042.78;4214886;28;20225;-74
2022/09/24 08:37:21;;;;;;;5.77;2.93;;;;;;;20.77;31.14;100043.69;4173767;28;21653;-69
2022/09/24 08:39:48;;;;;;;5.17;2.43;;;;;;;19.92;31.87;100039.44;4204680;28;21891;-69
2022/09/24 08:42:45;;;;;;;6.47;2.90;;;;;;;19.73;32.30;100041.19;4201318;28;20235;-68
2022/09/24 08:48:20;;;;;;;6.40;3.97;;;;;;;19.06;34.97;100024.38;4208066;28;21189;-67
2022/09/24 08:51:00;;;;;;;10.73;4.23;;;;;;;18.97;36.13;100026.47;4207384;28;21471;-65
2022/09/24 08:53:50;;;;;;;5.83;3.40;;;;;;;19.06;35.69;100027.09;4208356;28;20228;-67
2022/09/24 08:56:24;;;;;;;4.67;2.50;;;;;;;18.93;35.39;100027.91;4231239;28;20736;-67
2022/09/24 08:58:58;;;;;;;4.03;2.60;;;;;;;18.33;35.25;100027.91;4204732;28;20237;-68
2022/09/24 09:01:49;;;;;;;6.57;2.97;;;;;;;18.49;35.60;100029.34;4267067;28;20231;-67
2022/09/24 09:04:36;;;;;;;7.20;2.67;;;;;;;18.51;34.73;100027.28;4232606;28;20408;-69
2022/09/24 09:07:18;;;;;;;6.30;3.00;;;;;;;18.46;35.48;100027.09;4201037;28;20322;-79
2022/09/24 09:09:51;;;;;;;4.37;2.40;;;;;;;17.38;36.73;100018.09;4206671;28;21841;-72
2022/09/24 09:12:24;;;;;;;3.80;2.50;;;;;;;17.06;38.06;100009.63;4218154;28;22313;-69
2022/09/24 09:15:13;;;;;;;5.23;2.40;;;;;;;17.35;38.12;100007.69;4197342;28;20436;-71
2022/09/24 09:17:48;;;;;;;3.63;1.77;;;;;;;17.75;37.09;100018.63;4209147;28;20233;-69
2022/09/24 09:20:42;;;;;;;2.93;1.80;;;;;;;17.95;34.60;100018.72;4314583;28;20230;-67
2022/09/24 09:23:18;;;;;;;2.37;1.27;;;;;;;17.91;34.74;100020.97;4292670;28;20273;-71
2022/09/24 09:25:54;;;;;;;2.37;1.60;;;;;;;17.48;36.00;100018.53;4221587;28;20239;-68
2022/09/24 09:28:23;;;;;;;10.10;4.43;;;;;;;17.46;38.29;100013.34;4224564;28;20245;-69
2022/09/24 09:31:28;;;;;;;3.97;1.83;;;;;;;18.10;35.68;100014.84;4200813;28;25451;-68
2022/09/24 09:34:48;;;;;;;6.50;2.00;;;;;;;17.72;36.09;100009.09;4154686;29;22166;-70
2022/09/24 09:37:27;;;;;;;5.00;2.17;;;;;;;17.52;37.07;100004.47;4213755;29;20652;-76
2022/09/24 09:40:25;;;;;;;2.93;2.00;;;;;;;17.66;37.58;99999.97;4209297;28;20262;-72
2022/09/24 09:43:05;;;;;;;3.13;2.03;;;;;;;17.73;36.64;100000.81;4275011;28;20239;-72
2022/09/24 09:46:00;;;;;;;5.73;2.20;;;;;;;17.29;37.54;99999.41;4294088;28;20226;-69
2022/09/24 09:48:33;;;;;;;4.23;1.97;;;;;;;17.33;36.80;100004.41;4302632;28;22228;-76
2022/09/24 09:51:04;;;;;;;3.20;2.07;;;;;;;17.13;36.34;99998.91;4225267;28;20236;-72
2022/09/24 09:53:31;;;;;;;4.63;2.00;;;;;;;16.67;37.56;100000.25;4240358;28;20239;-71
2022/09/24 09:56:00;;;;;;;3.83;2.00;;;;;;;16.21;39.83;99998.00;4226812;28;20237;-61
2022/09/24 09:58:29;;;;;;;4.17;2.17;;;;;;;16.31;41.08;99993.13;4215986;28;20310;-70
2022/09/24 10:01:30;;;;;;;6.97;2.00;;;;;;;16.38;40.42;99990.50;4199103;28;20671;-73
2022/09/24 10:04:01;;;;;;;6.23;2.40;;;;;;;16.53;39.05;99990.41;4209513;28;20279;-72
2022/09/24 10:06:33;;;;;;;5.73;2.40;;;;;;;16.64;39.24;99990.72;4210347;28;20257;-73
2022/09/24 10:09:08;;;;;;;4.43;2.00;;;;;;;16.99;37.75;99987.25;4245915;28;20234;-69
2022/09/24 10:11:34;;;;;;;4.83;2.10;;;;;;;16.27;39.96;99978.44;4219669;28;20238;-73
2022/09/24 10:14:04;;;;;;;5.13;2.47;;;;;;;16.33;40.11;99977.66;4220305;28;20247;-68
2022/09/24 10:16:36;;;;;;;4.10;2.50;;;;;;;16.54;41.14;99986.72;4194253;28;20297;-71
2022/09/24 10:19:31;;;;;;;5.20;2.80;;;;;;;16.64;40.63;99987.19;4203266;28;20233;-69
2022/09/24 10:22:08;;;;;;;6.40;3.00;;;;;;;16.64;40.83;99990.72;4179288;28;20300;-71
2022/09/24 10:24:35;;;;;;;5.57;3.40;;;;;;;16.19;41.83;99981.25;4185803;28;22110;-68
2022/09/24 10:27:10;;;;;;;6.23;3.57;;;;;;;16.10;42.13;99977.03;4201010;28;20254;-70
2022/09/24 10:32:24;;;;;;;7.93;3.27;;;;;;;16.07;42.42;99985.50;4227094;28;20244;-70
2022/09/24 10:34:55;;;;;;;11.20;3.47;;;;;;;16.16;41.91;99973.59;4196377;28;22082;-70
2022/09/24 10:37:21;;;;;;;8.60;3.03;;;;;;;16.48;42.48;99968.69;4217567;28;20237;-71
2022/09/24 10:40:09;;;;;;;7.83;3.50;;;;;;;16.76;42.88;99974.88;4198325;28;22909;-72
2022/09/24 10:42:36;;;;;;;8.43;3.17;;;;;;;16.72;41.64;99968.25;4194900;28;20226;-71
2022/09/24 10:45:09;;;;;;;13.73;4.23;;;;;;;16.72;42.48;99968.25;4196584;28;20249;-68
2022/09/24 10:47:48;;;;;;;5.57;2.50;;;;;;;16.41;41.50;99964.13;4184169;28;20574;-71
2022/09/24 10:50:24;;;;;;;5.67;2.50;;;;;;;16.03;41.45;99964.38;4184806;28;20237;-69
2022/09/24 10:53:06;;;;;;;17.63;8.47;;;;;;;16.22;40.95;99954.03;4178765;28;20300;-68
2022/09/24 10:55:40;;;;;;;4.40;1.80;;;;;;;16.37;39.05;99962.00;4233880;28;20240;-71
2022/09/24 10:58:28;;;;;;;3.47;1.57;;;;;;;16.36;39.46;99966.53;4211784;28;20427;-74
2022/09/24 11:01:21;;;;;;;8.13;2.53;;;;;;;16.58;39.77;99963.81;4270349;28;20245;-69
2022/09/24 11:04:05;;;;;;;4.97;2.30;;;;;;;16.84;39.21;99965.88;4232361;28;20241;-70
2022/09/24 11:06:42;;;;;;;3.27;1.80;;;;;;;16.72;38.84;99964.75;4226007;28;21200;-73
2022/09/24 11:09:33;;;;;;;2.13;1.23;;;;;;;16.55;36.87;99972.25;4224703;28;20237;-71
2022/09/24 11:12:22;;;;;;;4.40;1.57;;;;;;;16.56;35.95;99971.25;4203435;28;20234;-69
2022/09/24 11:15:07;;;;;;;3.27;1.47;;;;;;;16.67;36.49;99974.22;4213235;28;20245;-67
2022/09/24 11:18:06;;;;;;;5.13;1.53;;;;;;;16.64;36.49;99966.53;4199548;28;20276;-72
2022/09/24 11:20:36;;;;;;;3.93;1.20;;;;;;;16.44;38.19;99960.19;4223632;28;20423;-69
2022/09/24 11:23:41;;;;;;;4.23;1.47;;;;;;;16.53;38.83;99960.88;4273175;28;20554;-70
2022/09/24 11:26:21;;;;;;;4.63;1.50;;;;;;;16.61;38.84;99960.72;4217736;28;20226;-68
2022/09/24 11:28:58;;;;;;;3.00;1.67;;;;;;;16.60;38.72;99961.75;4184292;28;20234;-69
2022/09/24 11:31:32;;;;;;;3.50;1.80;;;;;;;16.41;38.49;99953.38;4250905;28;20232;-69
2022/09/24 11:34:13;;;;;;;3.50;1.60;;;;;;;16.76;38.82;99961.44;4205498;28;20334;-71
2022/09/24 11:37:09;;;;;;;2.90;1.70;;;;;;;16.94;36.50;99962.84;4196428;28;20248;-71
2022/09/24 11:39:53;;;;;;;4.20;1.83;;;;;;;17.18;37.23;99956.13;4213883;28;20249;-69
2022/09/24 11:42:58;;;;;;;6.73;1.70;;;;;;;17.33;32.77;99966.75;4199683;28;20625;-70
2022/09/24 11:45:34;;;;;;;4.00;1.50;;;;;;;17.16;33.05;99967.09;4239021;28;20244;-70
2022/09/24 11:48:13;;;;;;;4.37;1.40;;;;;;;17.03;35.57;99956.28;4219900;28;21703;-67
2022/09/24 11:51:12;;;;;;;1.97;1.20;;;;;;;16.91;35.50;99955.19;4202094;28;20266;-70
2022/09/24 11:53:41;;;;;;;2.53;1.20;;;;;;;17.04;33.65;99957.91;4208704;28;20357;-68